createdAt,value
2022-07-31T00:00:29.022Z,50.91
2022-07-31T00:02:58.472Z,51.23
2022-07-31T00:05:26.389Z,50.95
2022-07-31T00:07:54.983Z,51.17
2022-07-31T00:10:22.702Z,51.31
2022-07-31T00:12:50.456Z,51.11
2022-07-31T00:15:18.774Z,51.19
2022-07-31T00:17:46.537Z,51.24
2022-07-31T00:20:17.354Z,51.45
2022-07-31T00:22:47.060Z,51.93
2022-07-31T00:25:16.022Z,52.11
2022-07-31T00:27:44.176Z,52.45
2022-07-31T00:30:13.696Z,52.23
2022-07-31T00:32:41.750Z,51.95
2022-07-31T00:35:10.455Z,52.32
2022-07-31T00:37:42.435Z,51.87
2022-07-31T00:40:12.900Z,52.00
2022-07-31T00:42:41.127Z,51.95
2022-07-31T00:45:09.409Z,51.82
2022-07-31T00:47:37.402Z,52.09
2022-07-31T00:50:08.365Z,51.88
2022-07-31T00:52:36.168Z,52.05
2022-07-31T00:55:06.087Z,52.05
2022-07-31T00:57:33.816Z,51.76
2022-07-31T01:00:01.506Z,51.92
2022-07-31T01:02:29.532Z,51.73
2022-07-31T01:04:57.271Z,51.66
2022-07-31T01:07:25.962Z,51.84
2022-07-31T01:09:55.303Z,51.92
2022-07-31T01:12:29.390Z,51.58
2022-07-31T01:14:59.261Z,51.89
2022-07-31T01:17:27.951Z,51.98
2022-07-31T01:19:55.837Z,51.70
2022-07-31T01:22:53.900Z,51.81
2022-07-31T01:25:32.862Z,52.06
2022-07-31T01:28:05.816Z,51.83
2022-07-31T01:30:38.512Z,52.10
2022-07-31T01:33:09.631Z,51.78
2022-07-31T01:35:42.175Z,52.26
2022-07-31T01:38:12.863Z,52.20
2022-07-31T01:40:44.247Z,52.33
2022-07-31T01:43:16.322Z,52.24
2022-07-31T01:45:46.444Z,52.33
2022-07-31T01:48:16.269Z,52.26
2022-07-31T01:50:45.442Z,52.69
2022-07-31T01:53:14.627Z,52.64
2022-07-31T01:56:01.791Z,52.68
2022-07-31T01:58:36.117Z,52.40
2022-07-31T02:01:06.447Z,52.51
2022-07-31T02:03:42.666Z,52.56
2022-07-31T02:06:11.398Z,52.72
2022-07-31T02:08:39.815Z,52.69
2022-07-31T02:11:08.531Z,52.79
2022-07-31T02:13:37.278Z,52.74
2022-07-31T02:16:06.856Z,52.93
2022-07-31T02:18:35.430Z,52.99
2022-07-31T02:21:03.174Z,52.92
2022-07-31T02:23:30.934Z,53.03
2022-07-31T02:25:59.142Z,53.16
2022-07-31T02:28:27.430Z,52.95
2022-07-31T02:30:55.300Z,52.90
2022-07-31T02:33:25.787Z,52.98
2022-07-31T02:35:56.698Z,53.17
2022-07-31T02:38:27.263Z,53.45
2022-07-31T02:40:57.837Z,53.43
2022-07-31T02:43:26.656Z,53.20
2022-07-31T02:45:55.022Z,53.42
2022-07-31T02:48:24.972Z,53.16
2022-07-31T02:50:52.824Z,53.37
2022-07-31T02:53:20.666Z,53.29
2022-07-31T02:55:48.494Z,53.52
2022-07-31T02:58:16.323Z,53.84
2022-07-31T03:00:44.174Z,53.71
2022-07-31T03:03:11.970Z,53.30
2022-07-31T03:05:41.034Z,53.71
2022-07-31T03:08:08.727Z,53.63
2022-07-31T03:10:36.638Z,53.46
2022-07-31T03:13:05.183Z,53.39
2022-07-31T03:15:33.563Z,53.49
2022-07-31T03:18:02.082Z,53.73
2022-07-31T03:20:41.518Z,53.56
2022-07-31T03:23:11.421Z,53.25
2022-07-31T03:25:39.439Z,53.70
2022-07-31T03:28:07.122Z,53.63
2022-07-31T03:30:35.206Z,53.48
2022-07-31T03:33:03.646Z,53.51
2022-07-31T03:35:31.712Z,53.55
2022-07-31T03:38:00.840Z,53.78
2022-07-31T03:40:48.606Z,53.51
2022-07-31T03:43:17.054Z,53.55
2022-07-31T03:45:45.346Z,53.75
2022-07-31T03:48:13.593Z,53.68
2022-07-31T03:50:41.801Z,53.56
2022-07-31T03:53:11.291Z,53.56
2022-07-31T03:55:40.398Z,53.52
2022-07-31T03:58:08.717Z,53.81
2022-07-31T04:00:36.887Z,53.71
2022-07-31T04:03:08.711Z,53.30
2022-07-31T04:05:36.749Z,53.33
2022-07-31T04:08:04.609Z,53.59
2022-07-31T04:10:34.076Z,53.76
2022-07-31T04:13:01.771Z,53.52
2022-07-31T04:15:29.685Z,53.43
2022-07-31T04:17:57.413Z,53.35
2022-07-31T04:20:25.169Z,53.43
2022-07-31T04:22:52.905Z,53.44
2022-07-31T04:25:23.729Z,53.24
2022-07-31T04:27:52.870Z,53.35
2022-07-31T04:30:20.590Z,53.28
2022-07-31T04:32:48.623Z,53.46
2022-07-31T04:35:16.437Z,53.67
2022-07-31T04:37:48.547Z,53.48
2022-07-31T04:40:17.450Z,53.32
2022-07-31T04:42:45.218Z,53.50
2022-07-31T04:45:14.357Z,53.48
2022-07-31T04:47:42.103Z,53.35
2022-07-31T04:50:10.725Z,53.40
2022-07-31T04:52:38.430Z,53.26
2022-07-31T04:55:07.202Z,53.34
2022-07-31T04:57:34.918Z,53.51
2022-07-31T05:00:02.781Z,53.54
2022-07-31T05:02:31.965Z,53.60
2022-07-31T05:04:59.661Z,53.82
2022-07-31T05:07:28.786Z,53.64
2022-07-31T05:09:57.011Z,53.51
2022-07-31T05:12:24.720Z,53.72
2022-07-31T05:14:53.604Z,53.64
2022-07-31T05:17:21.434Z,53.79
2022-07-31T05:19:50.445Z,54.18
2022-07-31T05:22:18.808Z,54.26
2022-07-31T05:24:46.760Z,53.70
2022-07-31T05:27:17.375Z,54.00
2022-07-31T05:29:47.677Z,54.25
2022-07-31T05:32:15.619Z,53.86
2022-07-31T05:34:43.688Z,54.11
2022-07-31T05:37:12.804Z,53.93
2022-07-31T05:39:40.797Z,54.04
2022-07-31T05:42:08.754Z,54.07
2022-07-31T05:44:36.507Z,54.13
2022-07-31T05:47:08.007Z,54.25
2022-07-31T05:49:35.798Z,54.50
2022-07-31T05:52:03.741Z,54.51
2022-07-31T05:54:33.612Z,54.72
2022-07-31T05:57:01.467Z,54.64
2022-07-31T05:59:29.341Z,54.96
2022-07-31T06:01:57.481Z,54.89
2022-07-31T06:04:25.339Z,54.97
2022-07-31T06:06:53.133Z,55.47
2022-07-31T06:09:20.837Z,55.44
2022-07-31T06:11:49.978Z,54.91
2022-07-31T06:14:17.722Z,55.40
2022-07-31T06:16:47.764Z,55.59
2022-07-31T06:19:15.465Z,55.43
2022-07-31T06:21:43.218Z,55.52
2022-07-31T06:24:10.949Z,55.54
2022-07-31T06:26:40.980Z,55.59
2022-07-31T06:29:12.035Z,56.29
2022-07-31T06:31:39.872Z,56.28
2022-07-31T06:34:07.603Z,56.13
2022-07-31T06:36:35.343Z,56.51
2022-07-31T06:39:03.152Z,56.40
2022-07-31T06:41:47.266Z,57.17
2022-07-31T06:44:17.301Z,57.04
2022-07-31T06:46:48.844Z,56.89
2022-07-31T06:49:17.901Z,57.26
2022-07-31T06:51:46.177Z,57.57
2022-07-31T06:54:13.875Z,57.94
2022-07-31T06:56:42.050Z,57.90
2022-07-31T06:59:09.788Z,57.84
2022-07-31T07:01:39.089Z,58.00
2022-07-31T07:04:07.129Z,58.15
2022-07-31T07:06:37.444Z,58.30
2022-07-31T07:09:05.310Z,58.39
2022-07-31T07:11:33.125Z,58.74
2022-07-31T07:14:00.865Z,59.01
2022-07-31T07:16:28.551Z,59.44
2022-07-31T07:18:58.479Z,59.80
2022-07-31T07:21:26.373Z,60.11
2022-07-31T07:23:54.105Z,60.09
2022-07-31T07:26:21.861Z,60.40
2022-07-31T07:28:49.675Z,60.11
2022-07-31T07:31:17.476Z,60.55
2022-07-31T07:33:45.581Z,61.01
2022-07-31T07:36:23.426Z,60.62
2022-07-31T07:38:55.097Z,60.91
2022-07-31T07:41:24.086Z,61.05
2022-07-31T07:43:52.891Z,61.28
2022-07-31T07:46:21.669Z,61.38
2022-07-31T07:48:51.110Z,61.67
2022-07-31T07:51:20.681Z,62.11
2022-07-31T07:53:48.422Z,62.18
2022-07-31T07:56:16.583Z,62.02
2022-07-31T07:58:44.386Z,62.24
2022-07-31T08:01:12.206Z,62.33
2022-07-31T08:03:49.568Z,62.90
2022-07-31T08:06:21.097Z,63.17
2022-07-31T08:08:49.038Z,62.54
2022-07-31T08:11:18.247Z,62.79
2022-07-31T08:13:50.724Z,63.00
2022-07-31T08:16:19.699Z,62.33
2022-07-31T08:18:47.463Z,62.35
2022-07-31T08:21:15.200Z,62.91
2022-07-31T08:23:44.389Z,62.98
2022-07-31T08:26:13.134Z,63.56
2022-07-31T08:28:50.304Z,63.44
2022-07-31T08:31:18.902Z,63.95
2022-07-31T08:33:46.572Z,63.94
2022-07-31T08:36:14.266Z,63.77
2022-07-31T08:38:42.024Z,63.02
2022-07-31T08:41:16.129Z,63.70
2022-07-31T08:44:01.536Z,63.03
2022-07-31T08:46:33.303Z,62.72
2022-07-31T08:49:01.718Z,62.22
2022-07-31T08:51:29.967Z,62.02
2022-07-31T08:53:58.189Z,62.14
2022-07-31T08:56:27.588Z,62.28
2022-07-31T08:58:57.003Z,62.64
2022-07-31T09:01:25.033Z,61.75
2022-07-31T09:03:53.557Z,61.87
2022-07-31T09:06:21.359Z,61.25
2022-07-31T09:08:49.166Z,61.36
2022-07-31T09:11:16.882Z,61.00
2022-07-31T09:14:02.563Z,60.52
2022-07-31T09:16:31.403Z,60.30
2022-07-31T09:19:00.283Z,59.88
2022-07-31T09:21:28.330Z,61.83
2022-07-31T09:23:56.295Z,59.96
2022-07-31T09:26:34.638Z,60.30
2022-07-31T09:29:08.556Z,60.55
2022-07-31T09:31:36.744Z,61.07
2022-07-31T09:34:04.707Z,61.48
2022-07-31T09:36:32.619Z,61.88
2022-07-31T09:39:04.132Z,61.80
2022-07-31T09:42:01.691Z,60.85
2022-07-31T09:44:25.408Z,60.45
2022-07-31T09:46:54.083Z,61.39
2022-07-31T09:49:31.593Z,60.30
2022-07-31T09:51:59.453Z,60.21
2022-07-31T09:54:28.423Z,60.15
2022-07-31T09:56:57.067Z,60.67
2022-07-31T09:59:26.681Z,61.79
2022-07-31T10:01:54.716Z,61.02
2022-07-31T10:04:23.532Z,61.77
2022-07-31T10:06:52.803Z,62.47
2022-07-31T10:09:22.292Z,62.26
2022-07-31T10:11:51.497Z,62.96
2022-07-31T10:14:23.565Z,63.54
2022-07-31T10:16:53.959Z,64.25
2022-07-31T10:19:24.432Z,64.57
2022-07-31T10:21:57.007Z,65.60
2022-07-31T10:24:28.279Z,64.06
2022-07-31T10:27:00.733Z,64.11
2022-07-31T10:29:32.771Z,63.94
2022-07-31T10:32:02.457Z,64.57
2022-07-31T10:34:30.327Z,65.08
2022-07-31T10:37:11.186Z,64.98
2022-07-31T10:39:45.472Z,64.57
2022-07-31T10:42:19.133Z,64.71
2022-07-31T10:44:49.542Z,64.37
2022-07-31T10:47:19.557Z,65.20
2022-07-31T10:52:07.496Z,64.28
2022-07-31T10:54:42.694Z,65.06
2022-07-31T10:57:10.931Z,64.95
2022-07-31T10:59:42.884Z,64.89
2022-07-31T11:02:12.430Z,64.78
2022-07-31T11:04:40.276Z,64.76
2022-07-31T11:07:19.971Z,65.19
2022-07-31T11:09:51.353Z,65.42
2022-07-31T11:12:19.951Z,64.45
2022-07-31T11:14:47.714Z,65.23
2022-07-31T11:17:15.575Z,64.39
2022-07-31T11:19:44.849Z,64.30
2022-07-31T11:22:31.864Z,65.14
2022-07-31T11:25:03.016Z,65.52
2022-07-31T11:27:31.671Z,65.93
2022-07-31T11:30:10.705Z,66.21
2022-07-31T11:32:41.129Z,66.76
2022-07-31T11:35:09.471Z,66.74
2022-07-31T11:37:46.322Z,66.57
2022-07-31T11:40:27.251Z,67.16
2022-07-31T11:43:24.217Z,67.71
2022-07-31T11:45:48.578Z,68.26
2022-07-31T11:48:19.354Z,68.76
2022-07-31T11:50:47.853Z,69.32
2022-07-31T11:53:15.823Z,70.20
2022-07-31T11:55:52.734Z,70.66
2022-07-31T11:58:21.865Z,71.43
2022-07-31T12:00:55.915Z,71.88
2022-07-31T12:03:26.745Z,71.91
2022-07-31T12:05:55.481Z,71.91
2022-07-31T12:08:24.262Z,72.28
2022-07-31T12:10:54.778Z,72.88
2022-07-31T12:13:23.566Z,73.91
2022-07-31T12:15:59.612Z,72.67
2022-07-31T12:18:28.280Z,73.56
2022-07-31T12:20:58.135Z,72.87
2022-07-31T12:23:41.117Z,73.25
2022-07-31T12:26:13.484Z,73.17
2022-07-31T12:28:41.381Z,73.75
2022-07-31T12:31:09.101Z,73.13
2022-07-31T12:33:45.871Z,72.49
2022-07-31T12:36:15.252Z,72.11
2022-07-31T12:38:45.560Z,72.14
2022-07-31T12:41:17.612Z,72.84
2022-07-31T12:43:51.949Z,72.80
2022-07-31T12:46:21.498Z,72.60
2022-07-31T12:48:49.348Z,72.82
2022-07-31T12:51:45.793Z,72.74
2022-07-31T12:54:09.174Z,72.81
2022-07-31T12:56:40.565Z,72.92
2022-07-31T12:59:09.469Z,72.43
2022-07-31T13:01:42.211Z,72.62
2022-07-31T13:04:18.917Z,72.61
2022-07-31T13:06:48.885Z,73.10
2022-07-31T13:09:17.058Z,72.64
2022-07-31T13:11:48.340Z,72.91
2022-07-31T13:14:16.646Z,73.08
2022-07-31T13:16:44.468Z,73.31
2022-07-31T13:19:12.933Z,73.29
2022-07-31T13:21:49.098Z,73.53
2022-07-31T13:24:18.129Z,73.26
2022-07-31T13:26:47.348Z,73.70
2022-07-31T13:29:16.563Z,73.92
2022-07-31T13:31:44.460Z,74.78
2022-07-31T13:34:12.271Z,74.44
2022-07-31T13:36:40.344Z,74.05
2022-07-31T13:39:10.787Z,74.82
2022-07-31T13:41:39.678Z,75.04
2022-07-31T13:44:09.770Z,73.93
2022-07-31T13:46:37.772Z,73.38
2022-07-31T13:49:08.707Z,73.50
2022-07-31T13:51:37.348Z,74.49
2022-07-31T13:54:05.349Z,74.45
2022-07-31T13:56:39.526Z,74.37
2022-07-31T13:59:17.780Z,74.65
2022-07-31T14:02:02.999Z,75.21
2022-07-31T14:04:38.313Z,74.71
2022-07-31T14:07:07.493Z,74.62
2022-07-31T14:09:36.084Z,75.14
2022-07-31T14:12:04.928Z,74.88
2022-07-31T14:14:34.881Z,74.92
2022-07-31T14:17:02.673Z,75.31
2022-07-31T14:19:30.445Z,74.72
2022-07-31T14:22:11.865Z,75.15
2022-07-31T14:24:40.888Z,74.68
2022-07-31T14:27:08.742Z,74.54
2022-07-31T14:29:37.921Z,74.41
2022-07-31T14:32:06.422Z,74.77
2022-07-31T14:34:35.451Z,74.09
2022-07-31T14:37:04.831Z,74.38
2022-07-31T14:39:32.794Z,74.48
2022-07-31T14:43:27.214Z,72.85
2022-07-31T14:45:54.955Z,72.33
2022-07-31T14:48:23.040Z,72.17
2022-07-31T14:50:50.748Z,71.99
2022-07-31T14:53:18.479Z,71.49
2022-07-31T14:55:46.264Z,71.69
2022-07-31T14:58:14.006Z,71.25
2022-07-31T15:00:43.083Z,71.68
2022-07-31T15:03:10.896Z,71.17
2022-07-31T15:06:37.666Z,70.97
2022-07-31T15:08:29.999Z,70.54
2022-07-31T15:10:57.887Z,70.07
2022-07-31T15:13:27.515Z,70.05
2022-07-31T15:15:56.649Z,69.54
2022-07-31T15:18:26.581Z,69.92
2022-07-31T15:20:54.375Z,69.80
2022-07-31T15:23:22.215Z,69.84
2022-07-31T15:25:49.940Z,70.29
2022-07-31T15:28:17.713Z,69.22
2022-07-31T15:30:45.959Z,68.84
2022-07-31T15:33:15.095Z,68.15
2022-07-31T15:35:42.885Z,68.42
2022-07-31T15:38:13.538Z,67.66
2022-07-31T15:40:41.277Z,67.91
2022-07-31T15:43:08.985Z,68.50
2022-07-31T15:45:38.762Z,68.16
2022-07-31T15:48:10.100Z,68.23
2022-07-31T15:50:39.579Z,68.68
2022-07-31T15:53:07.325Z,69.14
2022-07-31T15:55:35.000Z,69.44
2022-07-31T15:58:02.624Z,71.32
2022-07-31T16:00:30.370Z,71.67
2022-07-31T16:02:58.074Z,72.70
2022-07-31T16:05:37.054Z,73.12
2022-07-31T16:08:32.839Z,74.94
2022-07-31T16:10:56.720Z,76.17
2022-07-31T16:13:25.085Z,77.35
2022-07-31T16:15:53.065Z,78.26
2022-07-31T16:18:22.519Z,78.46
2022-07-31T16:20:50.253Z,79.35
2022-07-31T16:24:37.222Z,79.87
2022-07-31T16:27:05.341Z,80.40
2022-07-31T16:29:57.827Z,80.27
2022-07-31T16:32:20.878Z,81.09
2022-07-31T16:34:52.713Z,81.45
2022-07-31T16:37:21.782Z,81.46
2022-07-31T16:40:29.024Z,81.30
2022-07-31T16:43:00.756Z,80.30
2022-07-31T16:45:28.809Z,79.82
2022-07-31T16:48:00.096Z,78.63
2022-07-31T16:50:27.817Z,79.83
2022-07-31T16:52:55.630Z,79.64
2022-07-31T16:56:00.003Z,80.58
2022-07-31T16:58:14.974Z,80.57
2022-07-31T17:00:42.744Z,80.32
2022-07-31T17:03:59.361Z,79.91
2022-07-31T17:05:58.410Z,79.90
2022-07-31T17:08:26.116Z,79.84
2022-07-31T17:10:55.097Z,79.63
2022-07-31T17:13:23.365Z,79.84
2022-07-31T17:15:51.107Z,79.00
2022-07-31T17:18:21.058Z,79.08
2022-07-31T17:20:48.738Z,78.83
2022-07-31T17:23:16.586Z,78.84
2022-07-31T17:26:05.780Z,79.37
2022-07-31T17:28:33.502Z,79.81
2022-07-31T17:31:02.421Z,79.66
2022-07-31T17:34:00.703Z,79.81
2022-07-31T17:36:17.989Z,79.62
2022-07-31T17:38:45.706Z,80.05
2022-07-31T17:41:24.662Z,79.80
2022-07-31T17:43:53.713Z,79.99
2022-07-31T17:47:07.453Z,79.68
2022-07-31T17:49:11.491Z,79.87
2022-07-31T17:51:59.872Z,80.16
2022-07-31T17:54:28.721Z,79.63
2022-07-31T17:56:57.924Z,79.80
2022-07-31T17:59:25.615Z,79.71
2022-07-31T18:01:59.548Z,79.49
2022-07-31T18:04:30.365Z,79.91
2022-07-31T18:06:58.422Z,79.54
2022-07-31T18:09:26.231Z,79.62
2022-07-31T18:11:58.944Z,79.51
2022-07-31T18:14:27.106Z,79.36
2022-07-31T18:16:54.835Z,79.63
2022-07-31T18:19:25.730Z,79.50
2022-07-31T18:21:55.855Z,79.01
2022-07-31T18:24:23.999Z,79.30
2022-07-31T18:26:53.802Z,79.23
2022-07-31T18:29:23.070Z,78.76
2022-07-31T18:31:50.926Z,79.26
2022-07-31T18:34:18.702Z,78.48
2022-07-31T18:36:46.557Z,78.95
2022-07-31T18:39:15.092Z,79.21
2022-07-31T18:41:48.342Z,79.10
2022-07-31T18:44:16.791Z,79.52
2022-07-31T18:46:45.906Z,79.46
2022-07-31T18:51:00.751Z,79.29
2022-07-31T18:52:01.967Z,79.31
2022-07-31T18:54:30.113Z,79.41
2022-07-31T18:56:57.878Z,79.29
2022-07-31T18:59:28.388Z,79.18
2022-07-31T19:02:00.634Z,79.07
2022-07-31T19:04:28.649Z,79.04
2022-07-31T19:06:56.554Z,78.74
2022-07-31T19:09:27.882Z,78.93
2022-07-31T19:11:58.751Z,79.18
2022-07-31T19:14:26.711Z,79.02
2022-07-31T19:16:57.826Z,79.27
2022-07-31T19:19:28.437Z,79.06
2022-07-31T19:22:14.820Z,79.20
2022-07-31T19:24:45.208Z,78.70
2022-07-31T19:27:13.066Z,78.87
2022-07-31T19:29:42.553Z,78.81
2022-07-31T19:32:11.432Z,78.94
2022-07-31T19:34:42.191Z,78.75
2022-07-31T19:37:15.940Z,78.94
2022-07-31T19:39:43.679Z,78.38
2022-07-31T19:42:13.433Z,78.28
2022-07-31T19:44:41.124Z,78.66
2022-07-31T19:47:11.870Z,78.62
2022-07-31T19:51:37.365Z,78.92
2022-07-31T19:54:05.368Z,79.36
2022-07-31T19:56:32.985Z,79.30
2022-07-31T19:59:03.735Z,79.57
2022-07-31T20:01:35.862Z,79.84
2022-07-31T20:04:03.632Z,80.06
2022-07-31T20:06:34.282Z,80.33
2022-07-31T20:09:06.523Z,80.96
2022-07-31T20:11:37.386Z,81.46
2022-07-31T20:14:05.097Z,82.46
2022-07-31T20:16:33.196Z,82.91
2022-07-31T20:19:01.291Z,83.09
2022-07-31T20:21:32.493Z,83.63
2022-07-31T20:24:04.610Z,83.50
2022-07-31T20:26:36.333Z,83.63
2022-07-31T20:29:04.533Z,84.11
2022-07-31T20:31:33.074Z,84.19
2022-07-31T20:34:04.077Z,84.25
2022-07-31T20:36:32.029Z,84.11
2022-07-31T20:38:59.722Z,84.03
2022-07-31T20:41:32.297Z,84.20
2022-07-31T20:44:00.406Z,84.44
2022-07-31T20:46:28.638Z,84.53
2022-07-31T20:48:57.316Z,84.86
2022-07-31T20:51:25.110Z,84.92
2022-07-31T20:53:53.752Z,84.83
2022-07-31T20:56:22.208Z,84.50
2022-07-31T20:58:52.196Z,84.67
2022-07-31T21:01:21.109Z,84.82
2022-07-31T21:03:49.042Z,84.79
2022-07-31T21:06:19.270Z,85.13
2022-07-31T21:08:47.050Z,85.27
2022-07-31T21:11:14.782Z,85.65
2022-07-31T21:13:43.181Z,85.93
2022-07-31T21:16:12.419Z,86.64
2022-07-31T21:18:43.264Z,86.65
2022-07-31T21:21:11.240Z,87.11
2022-07-31T21:23:39.277Z,87.28
2022-07-31T21:26:07.961Z,86.06
2022-07-31T21:28:36.379Z,86.29
2022-07-31T21:31:05.404Z,85.98
2022-07-31T21:33:35.287Z,85.90
2022-07-31T21:36:03.276Z,85.93
2022-07-31T21:38:31.329Z,86.25
2022-07-31T21:40:59.500Z,86.49
2022-07-31T21:43:30.414Z,86.74
2022-07-31T21:46:06.626Z,86.61
2022-07-31T21:48:38.291Z,87.01
2022-07-31T21:51:06.680Z,86.65
2022-07-31T21:53:35.555Z,86.87
2022-07-31T21:56:04.337Z,86.48
2022-07-31T21:58:32.253Z,86.48
2022-07-31T22:01:00.123Z,86.40
2022-07-31T22:03:27.872Z,86.02
2022-07-31T22:06:14.701Z,86.41
2022-07-31T22:08:42.512Z,85.86
2022-07-31T22:11:10.445Z,86.13
2022-07-31T22:13:38.210Z,86.18
2022-07-31T22:16:06.670Z,86.02
2022-07-31T22:18:35.513Z,86.03
2022-07-31T22:21:07.501Z,86.32
2022-07-31T22:23:35.871Z,86.17
2022-07-31T22:26:03.919Z,86.21
2022-07-31T22:28:32.202Z,86.26
2022-07-31T22:31:00.290Z,86.36
2022-07-31T22:33:28.172Z,86.45
2022-07-31T22:36:00.381Z,86.32
2022-07-31T22:38:30.767Z,86.74
2022-07-31T22:40:59.232Z,86.46
2022-07-31T22:44:10.589Z,86.42
2022-07-31T22:46:15.662Z,86.44
2022-07-31T22:48:45.695Z,85.99
2022-07-31T22:51:14.986Z,86.22
2022-07-31T22:53:49.101Z,85.87
2022-07-31T22:56:17.154Z,86.01
2022-07-31T22:58:44.887Z,85.61
2022-07-31T23:01:12.647Z,85.95
2022-07-31T23:03:40.422Z,85.41
2022-07-31T23:06:30.698Z,85.34
2022-07-31T23:08:57.370Z,85.68
2022-07-31T23:11:25.507Z,85.53
2022-07-31T23:13:53.663Z,85.26
2022-07-31T23:16:21.617Z,85.35
2022-07-31T23:18:49.538Z,85.09
2022-07-31T23:21:17.287Z,84.87
2022-07-31T23:23:49.021Z,85.06
2022-07-31T23:26:19.383Z,84.87
2022-07-31T23:28:47.680Z,84.56
2022-07-31T23:31:15.814Z,84.55
2022-07-31T23:33:43.939Z,84.73
2022-07-31T23:36:11.670Z,84.81
2022-07-31T23:38:39.546Z,84.72
2022-07-31T23:41:07.336Z,84.86
2022-07-31T23:43:35.813Z,84.72
2022-07-31T23:46:03.667Z,85.06
2022-07-31T23:48:32.789Z,84.93
2022-07-31T23:51:00.557Z,84.86
2022-07-31T23:53:28.405Z,84.76
2022-07-31T23:55:56.155Z,85.25
2022-07-31T23:58:23.840Z,84.89
